Time;durP1;ratioP1;P1;durP2;ratioP2;P2;SDS_P1;SDS_P2;PMS_P1;PMS_P2;Temp;Humidity;BMP_temperature;BMP_pressure;BME280_temperature;BME280_humidity;BME280_pressure;Samples;Min_cycle;Max_cycle;Signal;HPM_P1;HPM_P2
2023/06/26 00:00:19;;;;;;;7.00;5.85;;;25.10;99.90;;;;;;4965816;28;20179;-38
2023/06/26 00:02:45;;;;;;;7.65;5.50;;;25.00;99.90;;;;;;4968660;28;20401;-38
2023/06/26 00:05:11;;;;;;;6.72;5.72;;;25.00;99.90;;;;;;4963702;28;20078;-36
2023/06/26 00:07:36;;;;;;;6.97;5.78;;;25.00;99.90;;;;;;4967661;28;20055;-37
2023/06/26 00:10:03;;;;;;;7.18;6.13;;;24.90;99.90;;;;;;4962992;28;20086;-36
2023/06/26 00:12:30;;;;;;;6.75;5.72;;;24.80;99.90;;;;;;4968744;28;20125;-37
2023/06/26 00:14:56;;;;;;;7.35;5.68;;;24.80;99.90;;;;;;4965528;28;20054;-36
2023/06/26 00:17:22;;;;;;;6.10;4.85;;;24.80;99.90;;;;;;4966560;28;20058;-37
2023/06/26 00:19:48;;;;;;;7.78;5.70;;;24.70;99.90;;;;;;4963564;28;20523;-37
2023/06/26 00:22:14;;;;;;;7.30;5.97;;;24.60;99.90;;;;;;4967301;28;20069;-38
2023/06/26 00:24:40;;;;;;;6.97;5.57;;;24.60;99.90;;;;;;4967982;28;20050;-37
2023/06/26 00:27:06;;;;;;;7.50;5.60;;;24.60;99.90;;;;;;4961886;28;20187;-36
2023/06/26 00:29:32;;;;;;;7.28;5.57;;;24.50;99.90;;;;;;4966353;28;20046;-36
2023/06/26 00:31:57;;;;;;;7.55;6.05;;;24.50;99.90;;;;;;4967095;28;20070;-38
2023/06/26 00:34:23;;;;;;;7.25;5.50;;;24.40;99.90;;;;;;4963419;28;20050;-37
2023/06/26 00:36:48;;;;;;;7.60;5.55;;;24.30;99.90;;;;;;4965265;28;20054;-37
2023/06/26 00:39:14;;;;;;;6.63;5.63;;;24.30;99.90;;;;;;4965796;28;20139;-37
2023/06/26 00:41:40;;;;;;;7.05;5.70;;;24.30;99.90;;;;;;4969485;28;20133;-37
2023/06/26 00:44:06;;;;;;;6.30;5.47;;;24.30;99.90;;;;;;4967009;28;20114;-37
2023/06/26 00:46:32;;;;;;;9.00;7.35;;;24.30;99.90;;;;;;4967211;28;20065;-37
2023/06/26 00:49:03;;;;;;;6.95;6.05;;;24.30;99.90;;;;;;4966069;28;20081;-36
2023/06/26 00:51:30;;;;;;;8.80;6.40;;;24.20;99.90;;;;;;4963258;28;20058;-37
2023/06/26 00:53:56;;;;;;;8.40;6.35;;;24.20;99.90;;;;;;4965244;28;20050;-37
2023/06/26 00:56:22;;;;;;;7.93;6.45;;;24.10;99.90;;;;;;4965558;28;20130;-37
2023/06/26 00:58:48;;;;;;;6.00;5.32;;;24.00;99.90;;;;;;4970044;28;20158;-37
2023/06/26 01:01:17;;;;;;;7.30;6.25;;;24.00;99.90;;;;;;4964967;28;20047;-37
2023/06/26 01:03:51;;;;;;;7.03;5.63;;;24.00;99.90;;;;;;4966377;28;20101;-37
2023/06/26 01:06:19;;;;;;;8.23;5.93;;;23.90;99.90;;;;;;4963993;28;20507;-36
2023/06/26 01:08:46;;;;;;;7.47;5.95;;;23.90;99.90;;;;;;4950133;28;20062;-36
2023/06/26 01:11:13;;;;;;;8.15;5.70;;;23.90;99.90;;;;;;4960350;28;20571;-36
2023/06/26 01:13:40;;;;;;;7.35;5.38;;;23.80;99.90;;;;;;4963554;28;20058;-36
2023/06/26 01:16:06;;;;;;;9.63;6.15;;;23.80;99.90;;;;;;4962580;28;20109;-37
2023/06/26 01:18:34;;;;;;;6.45;5.43;;;23.70;99.90;;;;;;4962843;28;20464;-37
2023/06/26 01:21:01;;;;;;;7.50;6.38;;;23.70;99.90;;;;;;4959662;28;20447;-37
2023/06/26 01:23:39;;;;;;;7.28;6.57;;;23.70;99.90;;;;;;4955537;28;20456;-37
2023/06/26 01:26:07;;;;;;;7.57;6.10;;;23.60;99.90;;;;;;4961272;28;20105;-37
2023/06/26 01:28:35;;;;;;;7.18;6.32;;;23.60;99.90;;;;;;4960696;28;20065;-37
2023/06/26 01:31:04;;;;;;;7.50;6.43;;;23.60;99.90;;;;;;4959010;28;20082;-37
2023/06/26 01:33:30;;;;;;;7.93;5.93;;;23.60;99.90;;;;;;4959441;28;20066;-37
2023/06/26 01:35:56;;;;;;;7.30;6.20;;;23.50;99.90;;;;;;4972512;28;20054;-37
2023/06/26 01:38:25;;;;;;;7.85;6.45;;;23.50;99.90;;;;;;4963425;28;20047;-36
2023/06/26 01:40:51;;;;;;;7.85;6.53;;;23.40;99.90;;;;;;4963651;28;20517;-36
2023/06/26 01:43:47;;;;;;;7.13;5.78;;;23.40;99.90;;;;;;4946228;28;20061;-36
2023/06/26 01:46:22;;;;;;;6.93;5.80;;;23.30;99.90;;;;;;4959710;28;20050;-36
2023/06/26 01:49:09;;;;;;;8.93;6.95;;;23.10;99.90;;;;;;4966380;28;20054;-37
2023/06/26 01:52:08;;;;;;;8.10;6.38;;;23.00;99.90;;;;;;4961236;28;20055;-36
2023/06/26 01:54:40;;;;;;;7.13;5.55;;;22.80;99.90;;;;;;4958723;28;20063;-37
2023/06/26 01:57:06;;;;;;;;;;;22.70;99.90;;;;;;4963454;28;20051;-37
2023/06/26 01:59:33;;;;;;;10.43;6.72;;;22.60;99.90;;;;;;4960063;28;20368;-36
2023/06/26 02:02:01;;;;;;;8.13;7.25;;;22.50;99.90;;;;;;4962030;28;20062;-37
2023/06/26 02:04:27;;;;;;;8.13;6.97;;;22.40;99.90;;;;;;4960872;28;20058;-37
2023/06/26 02:06:52;;;;;;;10.02;7.43;;;22.40;99.90;;;;;;4958463;28;20058;-36
2023/06/26 02:09:18;;;;;;;9.70;7.53;;;22.40;99.90;;;;;;4966824;28;20428;-37
2023/06/26 02:11:44;;;;;;;9.75;7.97;;;22.40;99.90;;;;;;4964661;28;20496;-36
2023/06/26 02:14:10;;;;;;;8.02;7.00;;;22.40;99.90;;;;;;4975616;28;20065;-37
2023/06/26 02:16:36;;;;;;;11.52;7.00;;;22.40;99.90;;;;;;4966513;28;20130;-37
2023/06/26 02:19:02;;;;;;;10.48;8.20;;;22.40;99.90;;;;;;4966629;28;20043;-37
2023/06/26 02:21:27;;;;;;;8.93;7.70;;;22.40;99.90;;;;;;4964236;28;20051;-36
2023/06/26 02:23:53;;;;;;;9.55;7.28;;;22.30;99.90;;;;;;4939828;28;20065;-37
2023/06/26 02:26:19;;;;;;;7.80;6.80;;;22.30;99.90;;;;;;4964582;28;20061;-37
2023/06/26 02:28:44;;;;;;;16.33;8.27;;;22.20;99.90;;;;;;4949017;28;20051;-36
2023/06/26 02:31:10;;;;;;;9.38;7.00;;;22.10;99.90;;;;;;4949161;28;20057;-37
2023/06/26 02:33:36;;;;;;;9.15;7.95;;;22.10;99.90;;;;;;4965968;28;20067;-36
2023/06/26 02:36:01;;;;;;;8.98;7.57;;;22.10;99.90;;;;;;4968590;28;20057;-36
2023/06/26 02:38:27;;;;;;;9.38;7.57;;;22.00;99.90;;;;;;4966407;28;20058;-36
2023/06/26 02:40:53;;;;;;;9.88;8.88;;;22.00;99.90;;;;;;4963695;28;20054;-37
2023/06/26 02:43:18;;;;;;;9.68;8.20;;;21.90;99.90;;;;;;4964714;28;20046;-37
2023/06/26 02:45:44;;;;;;;9.55;8.30;;;21.90;99.90;;;;;;4968833;28;20059;-36
2023/06/26 02:48:09;;;;;;;9.63;8.05;;;21.90;99.90;;;;;;4965820;28;20078;-36
2023/06/26 02:50:35;;;;;;;9.70;7.38;;;21.90;99.90;;;;;;4967079;28;20138;-36
2023/06/26 02:53:01;;;;;;;9.07;7.97;;;21.90;99.90;;;;;;4970130;28;20424;-37
2023/06/26 02:55:27;;;;;;;9.38;8.38;;;21.90;99.90;;;;;;4962997;28;20051;-36
2023/06/26 02:57:52;;;;;;;9.40;7.93;;;21.90;99.90;;;;;;4968687;28;20121;-37
2023/06/26 03:00:18;;;;;;;10.00;7.85;;;21.90;99.90;;;;;;4956751;28;20051;-36
2023/06/26 03:02:44;;;;;;;10.70;7.40;;;21.80;99.90;;;;;;4964340;28;20042;-37
2023/06/26 03:05:09;;;;;;;11.57;8.38;;;21.80;99.90;;;;;;4960809;28;20125;-37
2023/06/26 03:07:35;;;;;;;8.30;7.43;;;21.80;99.90;;;;;;4956374;28;21158;-37
2023/06/26 03:10:01;;;;;;;9.75;7.80;;;21.80;99.90;;;;;;4966632;28;20389;-37
2023/06/26 03:12:26;;;;;;;9.50;6.88;;;21.70;99.90;;;;;;4962436;28;20610;-36
2023/06/26 03:14:52;;;;;;;8.50;6.75;;;21.60;99.90;;;;;;4961348;28;20594;-37
2023/06/26 03:17:17;;;;;;;10.27;6.68;;;21.50;99.90;;;;;;4966467;28;20074;-37
2023/06/26 03:19:44;;;;;;;8.15;5.47;;;21.50;99.90;;;;;;4965318;28;20073;-37
2023/06/26 03:22:10;;;;;;;7.30;4.50;;;21.50;99.90;;;;;;4963874;28;20508;-36
2023/06/26 03:24:36;;;;;;;10.25;5.05;;;21.50;99.90;;;;;;4965724;28;20059;-36
2023/06/26 03:27:01;;;;;;;5.72;3.75;;;21.50;99.90;;;;;;4969357;28;20493;-36
2023/06/26 03:29:29;;;;;;;7.78;3.97;;;21.60;99.90;;;;;;4964557;28;20050;-37
2023/06/26 03:31:55;;;;;;;6.10;3.53;;;21.60;99.90;;;;;;4965327;28;20559;-37
2023/06/26 03:34:21;;;;;;;4.68;3.17;;;21.70;99.90;;;;;;4968318;28;20042;-38
2023/06/26 03:36:47;;;;;;;9.43;3.97;;;21.70;99.90;;;;;;4964885;28;20556;-36
2023/06/26 03:39:12;;;;;;;7.30;3.90;;;21.70;99.90;;;;;;4965117;28;20133;-36
2023/06/26 03:41:38;;;;;;;6.55;3.42;;;21.70;99.90;;;;;;4963779;28;20433;-36
2023/06/26 03:44:03;;;;;;;8.15;3.65;;;21.80;99.90;;;;;;4968868;28;20046;-36
2023/06/26 03:46:29;;;;;;;5.80;3.35;;;21.80;99.90;;;;;;4964965;28;20142;-37
2023/06/26 03:48:55;;;;;;;6.63;4.53;;;21.80;99.90;;;;;;4953223;28;20058;-37
2023/06/26 03:51:20;;;;;;;6.18;4.40;;;21.80;99.90;;;;;;4967763;28;20109;-37
2023/06/26 03:53:46;;;;;;;9.15;4.95;;;21.80;99.90;;;;;;4967081;28;20069;-37
2023/06/26 03:56:13;;;;;;;5.72;4.20;;;21.80;99.90;;;;;;4966281;28;20053;-37
2023/06/26 03:58:39;;;;;;;7.13;4.22;;;21.80;99.90;;;;;;4962596;28;20051;-36
2023/06/26 04:01:05;;;;;;;8.52;4.38;;;21.80;99.90;;;;;;4962945;28;20519;-36
2023/06/26 04:03:31;;;;;;;9.35;5.80;;;21.80;99.90;;;;;;4965608;28;20054;-37
2023/06/26 04:05:57;;;;;;;9.63;4.25;;;21.70;99.90;;;;;;4968640;28;20486;-36
2023/06/26 04:08:26;;;;;;;5.75;3.60;;;21.60;99.90;;;;;;4965852;28;20049;-36
2023/06/26 04:10:52;;;;;;;7.32;3.42;;;21.50;99.90;;;;;;4945079;28;20082;-36
2023/06/26 04:13:17;;;;;;;7.78;3.83;;;21.60;99.90;;;;;;4963820;28;20093;-36
2023/06/26 04:15:43;;;;;;;7.05;3.78;;;21.50;99.90;;;;;;4966538;28;20054;-37
2023/06/26 04:18:09;;;;;;;8.35;3.55;;;21.50;99.90;;;;;;4962768;28;20459;-37
2023/06/26 04:20:40;;;;;;;8.90;3.88;;;21.40;99.90;;;;;;4962862;28;20455;-37
2023/06/26 04:23:06;;;;;;;11.35;3.72;;;21.40;99.90;;;;;;4962899;28;20059;-36
2023/06/26 04:25:32;;;;;;;10.77;4.13;;;21.30;99.90;;;;;;4960639;28;20062;-36
2023/06/26 04:27:57;;;;;;;8.88;4.15;;;21.20;99.90;;;;;;4964758;28;20074;-37
2023/06/26 04:30:23;;;;;;;9.80;4.53;;;21.10;99.90;;;;;;4964625;28;20401;-37
2023/06/26 04:32:49;;;;;;;10.15;3.72;;;21.10;99.90;;;;;;4963115;28;20074;-36
2023/06/26 04:35:14;;;;;;;11.70;3.60;;;21.20;99.90;;;;;;4959698;28;20049;-37
2023/06/26 04:37:40;;;;;;;9.50;4.30;;;21.10;99.90;;;;;;4969257;28;20073;-38
2023/06/26 04:40:09;;;;;;;11.68;4.07;;;21.20;99.90;;;;;;4962830;28;20063;-37
2023/06/26 04:42:35;;;;;;;9.70;3.45;;;21.10;99.90;;;;;;4966774;28;20042;-37
2023/06/26 04:45:02;;;;;;;10.52;3.58;;;21.10;99.90;;;;;;4962613;28;20055;-36
2023/06/26 04:47:28;;;;;;;10.10;4.55;;;21.00;99.90;;;;;;4963846;28;20057;-37
2023/06/26 04:49:54;;;;;;;9.20;3.30;;;21.00;99.90;;;;;;4963854;28;21364;-36
2023/06/26 04:52:20;;;;;;;12.10;3.83;;;21.00;99.90;;;;;;4964319;28;20051;-36
2023/06/26 04:54:46;;;;;;;10.35;3.42;;;21.00;99.90;;;;;;4962863;28;20055;-37
2023/06/26 04:57:12;;;;;;;9.57;3.88;;;20.90;99.90;;;;;;4963867;28;20591;-36
2023/06/26 04:59:37;;;;;;;10.07;3.92;;;20.90;99.90;;;;;;4948356;28;20555;-37
2023/06/26 05:02:04;;;;;;;8.80;3.38;;;20.80;99.90;;;;;;4966356;28;20051;-35
2023/06/26 05:04:30;;;;;;;11.95;4.07;;;20.80;99.90;;;;;;4964549;28;20047;-35
2023/06/26 05:06:56;;;;;;;10.57;3.67;;;20.80;99.90;;;;;;4960281;28;20062;-36
2023/06/26 05:09:21;;;;;;;8.20;3.63;;;20.80;99.90;;;;;;4968379;28;20051;-37
2023/06/26 05:11:47;;;;;;;12.40;4.85;;;20.80;99.90;;;;;;4964479;28;20058;-36
2023/06/26 05:14:13;;;;;;;9.23;3.72;;;20.80;99.90;;;;;;4964436;28;20043;-36
2023/06/26 05:16:39;;;;;;;6.70;3.58;;;20.80;99.90;;;;;;4963359;28;20047;-36
2023/06/26 05:19:04;;;;;;;7.88;4.13;;;20.80;99.90;;;;;;4969189;28;20043;-36
2023/06/26 05:21:30;;;;;;;8.35;3.38;;;20.80;99.90;;;;;;4966567;28;20043;-35
2023/06/26 05:23:57;;;;;;;6.60;3.30;;;20.80;99.90;;;;;;4962518;28;20110;-37
2023/06/26 05:26:24;;;;;;;7.18;2.90;;;20.80;99.90;;;;;;4965359;28;20062;-36
2023/06/26 05:28:49;;;;;;;7.13;2.72;;;20.90;99.90;;;;;;4963060;28;21984;-36
2023/06/26 05:31:16;;;;;;;7.45;2.40;;;20.80;99.90;;;;;;4962259;28;20057;-37
2023/06/26 05:33:44;;;;;;;5.88;2.15;;;20.80;99.90;;;;;;4965611;28;20420;-36
2023/06/26 05:36:12;;;;;;;6.22;2.40;;;20.80;99.90;;;;;;4965131;28;20043;-35
2023/06/26 05:38:38;;;;;;;5.65;1.83;;;20.80;99.90;;;;;;4960421;28;20058;-36
2023/06/26 05:41:04;;;;;;;4.53;1.60;;;20.90;99.90;;;;;;4960051;28;20065;-36
2023/06/26 05:43:30;;;;;;;4.45;1.40;;;20.90;99.90;;;;;;4966899;28;20174;-35
2023/06/26 05:45:57;;;;;;;5.00;1.70;;;21.00;99.90;;;;;;4960488;28;20137;-35
2023/06/26 05:48:23;;;;;;;6.20;1.50;;;21.10;99.90;;;;;;4968367;28;20043;-35
2023/06/26 05:50:49;;;;;;;2.80;1.48;;;21.10;99.90;;;;;;4955592;28;20145;-35
2023/06/26 05:53:15;;;;;;;4.68;1.23;;;21.10;99.90;;;;;;4961845;28;20144;-36
2023/06/26 05:55:42;;;;;;;3.08;1.10;;;21.20;99.90;;;;;;4961830;28;20047;-35
2023/06/26 05:58:11;;;;;;;8.30;1.08;;;21.20;99.90;;;;;;4963037;28;20050;-36
2023/06/26 06:00:38;;;;;;;2.78;0.88;;;21.20;99.90;;;;;;4964161;28;20050;-35
2023/06/26 06:03:04;;;;;;;2.50;0.88;;;21.20;99.90;;;;;;4966980;28;20081;-36
2023/06/26 06:05:29;;;;;;;2.78;1.02;;;21.30;99.90;;;;;;4954061;28;20184;-36
2023/06/26 06:07:55;;;;;;;5.72;1.13;;;21.30;99.90;;;;;;4961914;28;20061;-35
2023/06/26 06:10:20;;;;;;;2.42;0.88;;;21.40;99.90;;;;;;4939589;28;20051;-36
2023/06/26 06:12:46;;;;;;;2.42;0.80;;;21.50;99.90;;;;;;4962637;28;20050;-36
2023/06/26 06:15:12;;;;;;;2.33;0.90;;;21.60;99.90;;;;;;4958035;28;20065;-35
2023/06/26 06:17:37;;;;;;;3.58;0.95;;;21.70;99.90;;;;;;4959772;28;20050;-35
2023/06/26 06:20:04;;;;;;;3.63;0.95;;;21.60;99.90;;;;;;4952558;28;20047;-36
2023/06/26 06:22:30;;;;;;;2.88;0.80;;;21.30;99.90;;;;;;4965318;28;20047;-36
2023/06/26 06:24:55;;;;;;;2.63;0.90;;;21.10;99.90;;;;;;4961244;28;20093;-36
2023/06/26 06:27:21;;;;;;;5.53;1.02;;;20.90;99.90;;;;;;4962532;28;20090;-35
2023/06/26 06:29:47;;;;;;;2.78;0.80;;;20.80;99.90;;;;;;4965396;28;20079;-37
2023/06/26 06:32:12;;;;;;;2.95;1.05;;;20.80;99.90;;;;;;4960029;28;20047;-36
2023/06/26 06:34:38;;;;;;;3.53;0.98;;;20.90;99.90;;;;;;4957821;28;20046;-35
2023/06/26 06:37:04;;;;;;;3.80;0.75;;;21.00;99.90;;;;;;4962276;28;20517;-36
2023/06/26 06:39:29;;;;;;;1.98;0.60;;;21.10;99.90;;;;;;4965658;28;20049;-35
2023/06/26 06:41:55;;;;;;;2.45;0.80;;;21.20;99.90;;;;;;4964242;28;20059;-35
2023/06/26 06:44:22;;;;;;;2.60;1.00;;;21.40;99.90;;;;;;4965798;28;20047;-36
2023/06/26 06:46:48;;;;;;;4.10;1.02;;;21.50;99.90;;;;;;4956245;28;20189;-35
2023/06/26 06:49:13;;;;;;;2.50;0.70;;;21.60;99.90;;;;;;4966069;28;20556;-35
2023/06/26 06:51:40;;;;;;;4.70;1.55;;;21.60;99.90;;;;;;4961303;28;20058;-35
2023/06/26 06:54:05;;;;;;;2.40;0.80;;;21.60;99.90;;;;;;4948418;28;20497;-35
2023/06/26 06:56:31;;;;;;;2.40;0.98;;;21.40;99.90;;;;;;4934262;28;20066;-35
2023/06/26 06:58:57;;;;;;;2.47;0.98;;;21.20;99.90;;;;;;4963643;28;20051;-36
2023/06/26 07:01:22;;;;;;;1.83;0.70;;;21.00;99.90;;;;;;4966865;28;20133;-35
2023/06/26 07:03:48;;;;;;;3.05;0.80;;;21.00;99.90;;;;;;4964547;28;20078;-35
2023/06/26 07:06:14;;;;;;;2.35;0.70;;;21.00;99.90;;;;;;4958696;28;20046;-35
2023/06/26 07:08:39;;;;;;;2.45;0.75;;;21.10;99.90;;;;;;4958562;28;20047;-35
2023/06/26 07:11:05;;;;;;;4.22;0.80;;;21.20;99.90;;;;;;4966425;28;20389;-36
2023/06/26 07:13:31;;;;;;;2.50;0.70;;;21.30;99.90;;;;;;4964972;28;20046;-35
2023/06/26 07:15:56;;;;;;;4.57;0.93;;;21.40;99.90;;;;;;4963155;28;20429;-35
2023/06/26 07:18:22;;;;;;;6.22;0.77;;;21.50;99.90;;;;;;4963052;28;20047;-35
2023/06/26 07:20:48;;;;;;;1.35;0.73;;;21.60;99.90;;;;;;4963323;28;20051;-34
2023/06/26 07:23:13;;;;;;;2.17;0.93;;;21.70;99.90;;;;;;4966575;28;20057;-35
2023/06/26 07:25:39;;;;;;;2.13;0.70;;;21.70;99.90;;;;;;4960785;28;20416;-35
2023/06/26 07:28:10;;;;;;;2.65;0.85;;;21.70;99.90;;;;;;4957719;28;20051;-34
2023/06/26 07:30:36;;;;;;;2.87;0.80;;;21.70;99.90;;;;;;4964586;28;20062;-35
2023/06/26 07:33:02;;;;;;;1.90;0.70;;;21.80;99.90;;;;;;4966051;28;20047;-35
2023/06/26 07:35:27;;;;;;;2.10;0.80;;;21.90;99.90;;;;;;4962945;28;20065;-35
2023/06/26 07:37:53;;;;;;;2.63;0.88;;;22.10;99.90;;;;;;4964969;28;20051;-35
2023/06/26 07:40:19;;;;;;;3.35;1.02;;;22.20;99.90;;;;;;4965211;28;20058;-35
2023/06/26 07:42:46;;;;;;;5.78;1.02;;;22.20;99.90;;;;;;4966325;28;20050;-35
2023/06/26 07:45:12;;;;;;;2.90;0.80;;;22.10;99.90;;;;;;4963651;28;20137;-35
2023/06/26 07:47:41;;;;;;;3.15;1.00;;;21.90;99.90;;;;;;4960722;28;20479;-35
2023/06/26 07:50:07;;;;;;;4.68;1.02;;;21.70;99.90;;;;;;4961427;28;20146;-36
2023/06/26 07:52:33;;;;;;;7.55;1.00;;;21.50;99.90;;;;;;4966829;28;20681;-35
2023/06/26 07:54:58;;;;;;;4.60;0.90;;;21.30;99.90;;;;;;4961297;28;20053;-35
2023/06/26 07:57:24;;;;;;;2.65;0.82;;;21.30;99.90;;;;;;4944636;28;20517;-36
2023/06/26 07:59:50;;;;;;;2.75;0.90;;;21.40;99.90;;;;;;4962457;28;20476;-35
2023/06/26 08:02:15;;;;;;;3.15;0.80;;;21.40;99.90;;;;;;4963740;28;20055;-35
2023/06/26 08:04:41;;;;;;;3.90;0.90;;;21.50;99.90;;;;;;4966280;28;20415;-35
2023/06/26 08:07:07;;;;;;;3.10;1.00;;;21.60;99.90;;;;;;4969829;28;20053;-35
2023/06/26 08:09:33;;;;;;;4.07;1.02;;;21.80;99.90;;;;;;4965670;28;20046;-34
2023/06/26 08:11:59;;;;;;;5.57;0.80;;;21.90;99.90;;;;;;4960919;28;20493;-34
2023/06/26 08:14:25;;;;;;;3.67;0.80;;;22.00;99.90;;;;;;4966734;28;20046;-35
2023/06/26 08:16:51;;;;;;;5.00;0.98;;;22.00;99.90;;;;;;4961993;28;21186;-35
2023/06/26 08:19:18;;;;;;;3.20;0.80;;;22.10;99.90;;;;;;4963400;28;20050;-35
2023/06/26 08:21:45;;;;;;;4.07;1.30;;;22.10;99.90;;;;;;4964906;28;20057;-36
2023/06/26 08:24:12;;;;;;;2.35;0.82;;;22.10;99.90;;;;;;4944044;28;20216;-35
2023/06/26 08:26:39;;;;;;;1.50;0.90;;;22.10;99.90;;;;;;4960126;28;20106;-34
2023/06/26 08:29:07;;;;;;;4.45;1.13;;;21.90;99.90;;;;;;4964432;28;20501;-35
2023/06/26 08:31:37;;;;;;;3.22;0.80;;;21.70;99.90;;;;;;4961762;28;20492;-35
2023/06/26 08:34:03;;;;;;;1.80;0.90;;;21.70;99.90;;;;;;4962040;28;20066;-35
2023/06/26 08:36:29;;;;;;;2.88;1.02;;;21.80;99.90;;;;;;4964073;28;20177;-36
2023/06/26 08:38:55;;;;;;;2.78;1.60;;;21.80;99.90;;;;;;4963138;28;20055;-35
2023/06/26 08:41:21;;;;;;;2.50;1.02;;;21.80;99.90;;;;;;4963685;28;20054;-35
2023/06/26 08:43:48;;;;;;;2.35;1.13;;;21.60;99.90;;;;;;4967408;28;20050;-36
2023/06/26 08:46:14;;;;;;;3.85;1.00;;;21.50;99.90;;;;;;4963100;28;20050;-35
2023/06/26 08:48:45;;;;;;;2.17;0.90;;;21.50;99.90;;;;;;4966207;28;20116;-35
2023/06/26 08:51:14;;;;;;;6.18;1.27;;;21.40;99.90;;;;;;4966296;28;20047;-35
2023/06/26 08:54:00;;;;;;;3.47;1.00;;;21.60;99.90;;;;;;4964886;28;20508;-35
2023/06/26 08:56:36;;;;;;;3.50;1.33;;;21.80;99.90;;;;;;4964923;28;20093;-35
2023/06/26 08:59:01;;;;;;;2.95;1.30;;;22.10;99.90;;;;;;4968369;28;20062;-35
2023/06/26 09:01:27;;;;;;;2.25;1.10;;;22.10;99.90;;;;;;4963014;28;20090;-35
2023/06/26 09:03:53;;;;;;;7.18;1.40;;;22.00;99.90;;;;;;4963177;28;20516;-35
2023/06/26 09:06:19;;;;;;;3.65;1.10;;;21.90;99.90;;;;;;4965437;28;20161;-35
2023/06/26 09:08:45;;;;;;;2.97;1.30;;;21.80;99.90;;;;;;4963022;28;20065;-35
2023/06/26 09:11:11;;;;;;;4.93;2.15;;;21.90;99.90;;;;;;4964023;28;20146;-35
2023/06/26 09:13:37;;;;;;;3.40;1.60;;;22.00;99.90;;;;;;4967354;28;20134;-36
2023/06/26 09:16:07;;;;;;;2.15;1.30;;;22.20;99.90;;;;;;4965084;28;20091;-35
2023/06/26 09:18:34;;;;;;;3.20;1.40;;;22.20;99.90;;;;;;4963919;28;20548;-35
2023/06/26 09:21:00;;;;;;;4.15;1.27;;;22.10;99.90;;;;;;4963192;28;20059;-35
2023/06/26 09:23:26;;;;;;;3.70;1.40;;;22.10;99.90;;;;;;4959590;28;20516;-35
2023/06/26 09:25:53;;;;;;;2.20;1.50;;;22.10;99.90;;;;;;4962195;28;20082;-35
2023/06/26 09:28:19;;;;;;;3.38;1.42;;;22.10;99.90;;;;;;4961495;28;20496;-35
2023/06/26 09:30:50;;;;;;;5.28;1.40;;;22.10;99.90;;;;;;4965147;28;20047;-35
2023/06/26 09:33:17;;;;;;;3.08;1.38;;;22.10;99.90;;;;;;4962692;28;20050;-35
2023/06/26 09:35:44;;;;;;;2.65;1.40;;;22.00;99.90;;;;;;4965943;28;20042;-36
2023/06/26 09:38:10;;;;;;;4.70;1.52;;;22.10;99.90;;;;;;4966979;28;20055;-36
2023/06/26 09:40:37;;;;;;;2.70;1.40;;;22.00;99.90;;;;;;4963038;28;20543;-35
2023/06/26 09:43:12;;;;;;;6.65;1.73;;;22.10;99.90;;;;;;4958234;28;20435;-36
2023/06/26 09:45:39;;;;;;;2.95;1.75;;;22.40;99.90;;;;;;4956300;28;20055;-36
2023/06/26 09:48:08;;;;;;;4.75;1.65;;;22.50;99.90;;;;;;4958162;28;20051;-35
2023/06/26 09:50:34;;;;;;;2.80;1.48;;;22.50;99.90;;;;;;4953795;28;20051;-35
2023/06/26 09:53:13;;;;;;;3.50;1.67;;;22.40;99.90;;;;;;4962121;28;20055;-35
2023/06/26 09:55:43;;;;;;;4.80;1.88;;;22.40;99.90;;;;;;4960970;28;20121;-36
2023/06/26 09:58:14;;;;;;;3.85;2.35;;;22.70;99.90;;;;;;4956137;28;20458;-36
2023/06/26 10:00:43;;;;;;;4.03;1.92;;;23.00;99.90;;;;;;4953274;28;20057;-36
2023/06/26 10:03:11;;;;;;;4.95;1.65;;;23.20;99.90;;;;;;4946562;28;20054;-36
2023/06/26 10:05:38;;;;;;;7.95;1.40;;;23.40;99.90;;;;;;4947335;28;20063;-35
2023/06/26 10:08:05;;;;;;;4.60;1.55;;;23.50;99.90;;;;;;4960397;28;20584;-35
2023/06/26 10:10:34;;;;;;;8.30;1.50;;;23.60;99.90;;;;;;4949053;28;20773;-35
2023/06/26 10:13:04;;;;;;;5.82;1.30;;;23.70;99.90;;;;;;4946940;28;20063;-36
2023/06/26 10:15:30;;;;;;;3.63;1.10;;;23.60;99.90;;;;;;4960940;28;20082;-35
2023/06/26 10:17:57;;;;;;;3.03;0.80;;;23.70;99.90;;;;;;4963502;28;20181;-35
2023/06/26 10:20:24;;;;;;;3.60;1.10;;;23.80;99.90;;;;;;4961949;28;20055;-36
2023/06/26 10:22:50;;;;;;;3.30;1.30;;;23.80;99.90;;;;;;4946306;28;20062;-36
2023/06/26 10:25:19;;;;;;;5.95;1.60;;;23.70;99.90;;;;;;4961938;28;20141;-35
2023/06/26 10:27:50;;;;;;;6.25;1.02;;;23.60;99.90;;;;;;4960794;28;20069;-36
2023/06/26 10:30:21;;;;;;;2.93;0.97;;;23.60;99.90;;;;;;4966327;28;20479;-36
2023/06/26 10:32:48;;;;;;;4.63;1.08;;;23.70;99.90;;;;;;4966845;28;20071;-36
2023/06/26 10:35:14;;;;;;;3.38;0.90;;;23.80;99.90;;;;;;4961666;28;20059;-36
2023/06/26 10:37:46;;;;;;;3.03;1.00;;;24.00;99.90;;;;;;4965418;28;20042;-36
2023/06/26 10:40:13;;;;;;;4.95;1.20;;;24.00;99.90;;;;;;4964069;28;20060;-36
2023/06/26 10:42:41;;;;;;;4.28;1.20;;;23.90;99.90;;;;;;4970770;28;20047;-36
2023/06/26 10:45:15;;;;;;;5.32;1.35;;;23.80;99.90;;;;;;4962203;28;20047;-35
2023/06/26 10:47:41;;;;;;;2.83;0.80;;;23.70;99.90;;;;;;4962621;28;20093;-35
2023/06/26 10:50:21;;;;;;;4.10;1.10;;;23.50;99.90;;;;;;4959868;28;20046;-35
2023/06/26 10:53:24;;;;;;;7.63;1.67;;;23.60;99.90;;;;;;4965902;28;20070;-36
2023/06/26 10:56:00;;;;;;;11.32;1.55;;;23.80;99.90;;;;;;4966438;28;20065;-35
2023/06/26 10:58:40;;;;;;;7.80;2.10;;;24.00;99.90;;;;;;4948027;28;20070;-36
2023/06/26 11:01:22;;;;;;;7.00;1.33;;;24.20;99.90;;;;;;4959321;28;20141;-36
2023/06/26 11:04:04;;;;;;;2.40;0.82;;;24.30;99.90;;;;;;4959147;28;20065;-35
2023/06/26 11:06:31;;;;;;;3.97;1.08;;;24.30;99.90;;;;;;4964779;28;20110;-35
2023/06/26 11:09:08;;;;;;;2.17;1.00;;;24.30;99.90;;;;;;4962714;28;20043;-35
2023/06/26 11:11:53;;;;;;;3.33;0.80;;;24.40;99.90;;;;;;4964330;28;20058;-35
2023/06/26 11:14:20;;;;;;;4.38;0.93;;;24.40;99.90;;;;;;4959323;28;20101;-35
2023/06/26 11:16:45;;;;;;;2.88;1.15;;;24.30;99.90;;;;;;4958368;28;20050;-35
2023/06/26 11:19:13;;;;;;;8.10;1.10;;;24.50;99.90;;;;;;4959812;28;20059;-36
2023/06/26 11:21:39;;;;;;;2.75;0.68;;;24.60;99.90;;;;;;4965402;28;20055;-36
2023/06/26 11:24:07;;;;;;;4.40;0.98;;;24.70;99.90;;;;;;4966791;28;20103;-36
2023/06/26 11:26:44;;;;;;;2.65;0.80;;;24.50;99.90;;;;;;4956828;28;20197;-36
2023/06/26 11:29:11;;;;;;;4.85;0.73;;;24.20;99.90;;;;;;4962464;28;20575;-36
2023/06/26 11:31:39;;;;;;;7.55;0.70;;;24.10;99.90;;;;;;4970277;28;20051;-35
2023/06/26 11:34:08;;;;;;;4.63;0.70;;;23.90;99.90;;;;;;4962500;28;20097;-35
2023/06/26 11:36:36;;;;;;;2.67;0.60;;;23.80;99.90;;;;;;4960579;28;20177;-35
2023/06/26 11:39:05;;;;;;;2.50;0.65;;;24.10;99.90;;;;;;4965491;28;20057;-35
2023/06/26 11:41:33;;;;;;;4.20;0.50;;;24.40;99.90;;;;;;4966085;28;20189;-36
2023/06/26 11:44:07;;;;;;;3.13;0.80;;;24.70;99.90;;;;;;4947208;28;20332;-35
2023/06/26 11:46:34;;;;;;;1.67;0.70;;;24.80;99.90;;;;;;4965363;28;20071;-36
2023/06/26 11:49:02;;;;;;;3.60;0.88;;;24.80;99.90;;;;;;4964027;28;20146;-36
2023/06/26 11:51:28;;;;;;;2.10;0.60;;;24.70;99.90;;;;;;4963333;28;21655;-36
2023/06/26 11:53:54;;;;;;;3.88;0.80;;;24.70;99.90;;;;;;4962510;28;20050;-36
2023/06/26 11:56:22;;;;;;;4.28;0.60;;;24.60;99.90;;;;;;4949685;28;20054;-36
2023/06/26 11:59:04;;;;;;;4.25;0.70;;;24.60;99.90;;;;;;4961194;28;20070;-35
2023/06/26 12:01:46;;;;;;;2.65;0.60;;;24.70;99.90;;;;;;4962213;28;20054;-36
2023/06/26 12:04:16;;;;;;;2.53;0.70;;;24.80;99.90;;;;;;4945739;28;20054;-35
2023/06/26 12:06:50;;;;;;;4.10;0.80;;;24.60;99.90;;;;;;4962707;28;20388;-36
2023/06/26 12:09:18;;;;;;;3.40;1.23;;;24.50;99.90;;;;;;4963087;28;20062;-35
2023/06/26 12:11:48;;;;;;;2.50;0.60;;;24.30;99.90;;;;;;4963780;28;20043;-35
2023/06/26 12:14:14;;;;;;;2.03;0.50;;;24.30;99.90;;;;;;4948777;28;20815;-35
2023/06/26 12:16:40;;;;;;;2.22;0.50;;;24.40;99.90;;;;;;4959890;28;20066;-35
2023/06/26 12:19:07;;;;;;;3.25;1.08;;;24.40;99.90;;;;;;4962572;28;20081;-36
2023/06/26 12:21:42;;;;;;;3.60;0.85;;;24.30;99.90;;;;;;4961032;28;20880;-36
2023/06/26 12:24:17;;;;;;;2.60;0.80;;;24.20;99.90;;;;;;4967073;28;20055;-35
2023/06/26 12:26:45;;;;;;;3.72;0.60;;;24.30;99.90;;;;;;4965252;28;20078;-35
2023/06/26 12:29:18;;;;;;;3.03;0.82;;;24.40;99.90;;;;;;4964884;28;20050;-36
2023/06/26 12:31:48;;;;;;;1.38;0.50;;;24.50;99.90;;;;;;4965447;28;20112;-36
2023/06/26 12:34:17;;;;;;;3.50;0.90;;;24.70;99.90;;;;;;4962822;28;20130;-35
2023/06/26 12:36:52;;;;;;;5.47;0.77;;;24.70;99.90;;;;;;4963590;28;20552;-35
2023/06/26 12:39:20;;;;;;;2.85;0.63;;;24.70;99.90;;;;;;4965641;28;20057;-35
2023/06/26 12:41:54;;;;;;;4.93;0.90;;;24.80;99.90;;;;;;4965669;28;20527;-36
2023/06/26 12:44:22;;;;;;;3.60;0.60;;;24.80;99.90;;;;;;4960647;28;20061;-35
2023/06/26 12:46:50;;;;;;;3.35;0.80;;;24.80;99.90;;;;;;4962552;28;20144;-35